logo dgac
Lunes 19 de Abril del 2021
Buscar por aerodromo o helipuerto
Ingrese nombre de aeródromo, localidad o designador OACI:

Aeródromo: Teniente Vidal (PUB) (SCCY)

Ubicación: Coyhaique, XI Región, Chile (45º 35' 37'' S, 72º 06' 19'' W) Ver ubicación en el mapa

Pistas

Orientación Dimensión Pendiente Superficie Resistencia APCH THR RWY PAPI
03/21 1546 x 30 FM THR 21 - 246m CONC 1.300 m ASPH PCN 30 F/B/X/T No No
Horas de operación HJ
Elevación 311 m / 1020 ft
Otra Información Adm : D.G.A.C.
Uso : PUB
ubicado 5 km SW Coyhaique
TEL/FAX 67 2235003 CEL TWR/AFIS +56 957082670
email : afis.ttevidal@dgac.gob.cl

Otra información ver AIP-Chile Volumen I AD 3.9-3.12-C

CCCM/FCCV Descargar
andera de Chile
Mapa de Teniente Vidal (PUB) (SCCY)

Último METAR

METAR SCCY 191100Z AUTO 19010KT 140V250 9999 -RA OVC041 10/08 Q0998

Último TAF

TAF SCCY 191049Z 1912/1924 VRB02KT 6000 -RA FEW012 OVC020 TX12/1913Z TN07/1923Z BECMG 1916/1918 9999 NSW SCT030 BKN200

Últimas fotos cámaras

Imagen aerodromo Teniente Vidal (PUB) (SCCY) Sur tomada el 19-04-2021 11:52:54 Imagen aerodromo Teniente Vidal (PUB) (SCCY) N-Este tomada el 19-04-2021 11:52:51

Último NOTAM

No hay notams registrados para este aeródromo